createdAt,value
2018-05-21T00:29:31.635Z,56.02
2018-05-21T00:31:59.650Z,56.55
2018-05-21T00:34:55.642Z,56.61
2018-05-21T00:37:23.205Z,56.40
2018-05-21T00:39:50.850Z,55.46
2018-05-21T00:42:39.103Z,56.45
2018-05-21T00:45:06.852Z,56.12
2018-05-21T00:47:38.236Z,55.97
2018-05-21T00:50:22.606Z,56.32
2018-05-21T00:52:57.886Z,56.35
2018-05-21T00:55:40.184Z,55.64
2018-05-21T00:58:11.921Z,57.12
2018-05-21T01:00:51.526Z,56.46
2018-05-21T01:03:21.071Z,55.85
2018-05-21T01:05:50.409Z,57.21
2018-05-21T01:08:18.088Z,57.73
2018-05-21T01:10:45.584Z,57.61
2018-05-21T01:13:13.128Z,57.42
2018-05-21T01:15:40.755Z,58.45
2018-05-21T01:18:08.292Z,57.72
2018-05-21T01:20:38.543Z,57.51
2018-05-21T01:23:06.300Z,57.77
2018-05-21T01:25:34.596Z,58.66
2018-05-21T01:28:02.164Z,58.61
2018-05-21T01:30:30.033Z,58.50
2018-05-21T01:33:14.611Z,58.78
2018-05-21T01:35:42.244Z,59.20
2018-05-21T01:38:09.868Z,58.01
2018-05-21T01:40:37.432Z,59.38
2018-05-21T01:43:09.355Z,59.77
2018-05-21T01:45:53.677Z,59.43
2018-05-21T01:48:41.946Z,60.44
2018-05-21T01:51:10.145Z,59.94
2018-05-21T01:53:37.700Z,60.92
2018-05-21T01:56:11.655Z,60.29
2018-05-21T01:58:39.290Z,60.63
2018-05-21T02:01:07.996Z,60.23
2018-05-21T02:03:36.324Z,60.58
2018-05-21T02:06:05.819Z,60.41
2018-05-21T02:08:33.427Z,60.68
2018-05-21T02:11:05.353Z,61.50
2018-05-21T02:13:35.061Z,61.91
2018-05-21T02:16:05.787Z,61.96
2018-05-21T02:18:33.502Z,61.99
2018-05-21T02:21:01.328Z,62.38
2018-05-21T02:23:29.103Z,62.68
2018-05-21T02:25:56.715Z,62.77
2018-05-21T02:28:24.285Z,62.82
2018-05-21T02:31:10.480Z,62.56
2018-05-21T02:33:38.000Z,63.48
2018-05-21T02:38:44.141Z,63.64
2018-05-21T02:41:12.622Z,63.64
2018-05-21T02:43:40.312Z,63.35
2018-05-21T02:46:13.425Z,64.02
2018-05-21T02:48:41.069Z,65.36
2018-05-21T02:51:08.626Z,65.31
2018-05-21T02:53:36.245Z,64.95
2018-05-21T02:56:21.341Z,65.06
2018-05-21T02:58:48.845Z,65.15
2018-05-21T03:01:30.413Z,65.39
2018-05-21T03:03:57.984Z,65.57
2018-05-21T03:06:28.399Z,65.33
2018-05-21T03:08:55.914Z,65.66
2018-05-21T03:11:23.440Z,65.63
2018-05-21T03:13:50.984Z,65.52
2018-05-21T03:16:21.026Z,66.07
2018-05-21T03:18:51.857Z,66.00
2018-05-21T03:24:15.007Z,66.20
2018-05-21T03:26:42.704Z,66.07
2018-05-21T03:29:10.209Z,65.86
2018-05-21T03:31:37.716Z,65.42
2018-05-21T03:34:05.247Z,66.07
2018-05-21T03:36:32.781Z,65.15
2018-05-21T03:41:53.539Z,64.60
2018-05-21T03:44:21.118Z,64.17
2018-05-21T03:46:48.679Z,63.93
2018-05-21T03:49:16.282Z,63.47
2018-05-21T03:51:48.256Z,62.79
2018-05-21T03:54:18.836Z,62.21
2018-05-21T03:56:46.423Z,61.71
2018-05-21T03:59:25.787Z,61.08
2018-05-21T04:02:05.273Z,60.46
2018-05-21T04:04:38.372Z,59.42
2018-05-21T04:09:59.182Z,58.50
2018-05-21T04:12:26.716Z,58.30
2018-05-21T04:14:55.790Z,58.16
2018-05-21T04:17:26.393Z,57.50
2018-05-21T04:19:53.936Z,57.02
2018-05-21T04:22:21.456Z,56.86
2018-05-21T04:24:49.003Z,57.03
2018-05-21T04:27:16.536Z,56.77
2018-05-21T04:32:32.498Z,54.88
2018-05-21T04:35:00.066Z,54.35
2018-05-21T04:37:27.595Z,53.98
2018-05-21T04:40:00.529Z,54.21
2018-05-21T04:42:28.054Z,52.88
2018-05-21T04:44:55.593Z,52.54
2018-05-21T04:47:26.893Z,51.94
2018-05-21T04:49:54.560Z,52.21
2018-05-21T04:52:22.078Z,51.42
2018-05-21T04:54:49.602Z,51.14
2018-05-21T05:00:09.053Z,50.79
2018-05-21T05:02:37.031Z,50.74
2018-05-21T05:07:58.434Z,49.90
2018-05-21T05:10:25.993Z,49.32
2018-05-21T05:13:07.134Z,48.93
2018-05-21T05:18:27.785Z,48.88
2018-05-21T05:20:55.318Z,48.51
2018-05-21T05:23:22.848Z,48.55
2018-05-21T05:25:50.393Z,47.17
2018-05-21T05:28:17.887Z,47.44
2018-05-21T05:30:51.155Z,46.30
2018-05-21T05:33:18.820Z,45.05
2018-05-21T05:38:24.825Z,44.36
2018-05-21T05:40:52.335Z,42.02
2018-05-21T05:43:56.970Z,43.87
2018-05-21T05:46:34.359Z,43.19
2018-05-21T05:49:03.953Z,42.65
2018-05-21T05:51:36.162Z,40.32
2018-05-21T05:54:03.654Z,40.32
2018-05-21T05:56:52.388Z,41.74
2018-05-21T05:59:20.779Z,40.55
2018-05-21T06:01:52.173Z,42.46
2018-05-21T06:07:25.749Z,40.78
2018-05-21T06:12:21.877Z,41.83
2018-05-21T06:27:57.606Z,40.10
2018-05-21T06:30:38.388Z,39.84
2018-05-21T06:45:26.570Z,37.79
2018-05-21T06:57:47.928Z,37.30
2018-05-21T07:00:15.466Z,37.52
2018-05-21T07:02:42.979Z,37.63
2018-05-21T07:05:10.510Z,36.76
2018-05-21T07:07:38.047Z,36.46
2018-05-21T07:10:05.577Z,36.06
2018-05-21T07:12:39.666Z,35.59
2018-05-21T07:15:07.204Z,35.42
2018-05-21T07:17:34.699Z,35.66
2018-05-21T07:20:02.242Z,34.99
2018-05-21T07:22:29.740Z,36.24
2018-05-21T07:24:57.274Z,34.40
2018-05-21T07:27:24.757Z,35.57
2018-05-21T07:29:52.269Z,35.30
2018-05-21T07:32:19.791Z,33.85
2018-05-21T07:34:47.497Z,34.51
2018-05-21T07:37:14.990Z,31.66
2018-05-21T07:39:42.638Z,31.26
2018-05-21T07:42:23.643Z,31.73
2018-05-21T07:44:51.200Z,34.06
2018-05-21T09:15:52.326Z,31.56
2018-05-21T09:21:04.812Z,32.09
2018-05-21T09:26:17.276Z,31.88
2018-05-21T09:29:05.839Z,32.12
2018-05-21T09:31:48.292Z,30.71
2018-05-21T09:37:06.708Z,33.66
2018-05-21T09:39:40.807Z,32.55
2018-05-21T09:42:19.699Z,30.37
2018-05-21T09:44:55.572Z,30.20
2018-05-21T09:47:30.764Z,31.27
2018-05-21T09:50:02.012Z,33.38
2018-05-21T09:52:31.529Z,32.41
2018-05-21T09:54:59.264Z,31.82
2018-05-21T09:57:27.143Z,33.02
2018-05-21T09:59:55.555Z,29.51
2018-05-21T10:02:24.319Z,31.71
2018-05-21T10:04:54.060Z,30.45
2018-05-21T10:07:22.104Z,30.22
2018-05-21T10:09:50.867Z,30.32
2018-05-21T10:12:18.799Z,30.36
2018-05-21T10:14:47.088Z,32.15
2018-05-21T10:17:16.060Z,29.40
2018-05-21T10:19:45.439Z,30.33
2018-05-21T10:22:14.337Z,29.34
2018-05-21T10:24:42.528Z,30.22
2018-05-21T10:27:10.224Z,30.63
2018-05-21T10:29:38.567Z,30.16
2018-05-21T10:32:06.540Z,29.27
2018-05-21T10:34:34.527Z,29.29
2018-05-21T10:37:02.541Z,30.18
2018-05-21T10:39:30.531Z,31.17
2018-05-21T10:41:58.238Z,30.91
2018-05-21T10:44:26.692Z,30.72
2018-05-21T10:46:56.133Z,28.94
2018-05-21T10:49:25.510Z,29.44
2018-05-21T10:51:53.125Z,28.36
2018-05-21T10:54:21.624Z,28.75
2018-05-21T10:56:49.832Z,28.36
2018-05-21T10:59:20.948Z,27.92
2018-05-21T11:01:48.595Z,29.97
2018-05-21T11:04:16.160Z,29.59
2018-05-21T11:06:43.981Z,29.50
2018-05-21T11:09:11.661Z,29.10
2018-05-21T11:11:39.848Z,30.84
2018-05-21T11:14:07.897Z,33.01
2018-05-21T11:16:36.501Z,34.24
2018-05-21T11:19:04.196Z,32.30
2018-05-21T11:21:31.887Z,33.81
2018-05-21T11:24:02.617Z,33.69
2018-05-21T11:26:30.206Z,35.95
2018-05-21T11:28:57.881Z,34.11
2018-05-21T11:31:25.491Z,34.47
2018-05-21T11:33:53.111Z,34.15
2018-05-21T11:36:20.943Z,35.95
2018-05-21T11:38:49.457Z,32.22
2018-05-21T11:41:17.026Z,33.38
2018-05-21T11:43:45.689Z,34.13
2018-05-21T11:46:13.439Z,32.84
2018-05-21T11:48:43.087Z,32.75
2018-05-21T11:51:10.722Z,33.12
2018-05-21T11:53:38.230Z,35.56
2018-05-21T11:56:05.804Z,36.39
2018-05-21T11:58:33.353Z,37.18
2018-05-21T12:01:00.883Z,37.36
2018-05-21T12:03:28.385Z,37.81
2018-05-21T12:05:55.951Z,35.65
2018-05-21T12:08:23.472Z,39.92
2018-05-21T12:10:50.987Z,36.23
2018-05-21T12:13:18.576Z,37.24
2018-05-21T12:15:46.128Z,34.01
2018-05-21T12:18:13.653Z,37.47
2018-05-21T12:20:41.219Z,34.90
2018-05-21T12:23:08.761Z,34.52
2018-05-21T12:25:36.338Z,35.66
2018-05-21T12:28:03.898Z,36.02
2018-05-21T12:30:31.469Z,35.92
2018-05-21T12:32:58.992Z,37.00
2018-05-21T12:35:26.500Z,39.31
2018-05-21T12:37:54.039Z,36.48
2018-05-21T12:40:21.542Z,36.70
2018-05-21T12:42:49.063Z,39.02
2018-05-21T12:45:16.618Z,35.86
2018-05-21T12:47:44.138Z,37.04
2018-05-21T12:50:11.665Z,34.69
2018-05-21T12:52:39.225Z,36.68
2018-05-21T12:55:06.754Z,34.85
2018-05-21T12:57:34.319Z,37.32
2018-05-21T13:00:01.860Z,35.51
2018-05-21T13:02:29.425Z,35.92
2018-05-21T13:04:56.943Z,34.22
2018-05-21T13:07:24.486Z,35.86
2018-05-21T13:09:52.068Z,32.10
2018-05-21T13:12:19.615Z,30.88
2018-05-21T13:14:47.236Z,32.24
2018-05-21T13:17:14.774Z,35.16
2018-05-21T13:19:42.307Z,34.27
2018-05-21T13:22:09.898Z,33.28
2018-05-21T13:24:37.431Z,35.60
2018-05-21T13:27:05.041Z,34.86
2018-05-21T13:29:32.566Z,34.69
2018-05-21T13:32:00.137Z,34.97
2018-05-21T13:34:27.716Z,37.70
2018-05-21T13:36:55.302Z,35.53
2018-05-21T13:39:22.846Z,35.10
2018-05-21T13:41:50.385Z,35.70
2018-05-21T13:44:17.912Z,36.03
2018-05-21T13:46:45.489Z,34.14
2018-05-21T13:49:13.068Z,33.48
2018-05-21T13:51:40.586Z,34.55
2018-05-21T13:54:08.127Z,34.19
2018-05-21T13:56:35.693Z,33.15
2018-05-21T13:59:03.314Z,34.93
2018-05-21T14:01:30.892Z,35.26
2018-05-21T14:03:58.503Z,33.73
2018-05-21T14:06:26.028Z,34.28
2018-05-21T14:08:53.542Z,33.98
2018-05-21T14:11:21.099Z,35.42
2018-05-21T14:13:48.755Z,32.58
2018-05-21T14:16:16.278Z,34.28
2018-05-21T14:18:43.830Z,33.67
2018-05-21T14:21:11.403Z,36.76
2018-05-21T14:23:38.929Z,34.87
2018-05-21T14:26:06.507Z,33.96
2018-05-21T14:28:34.068Z,32.72
2018-05-21T14:31:01.668Z,32.49
2018-05-21T14:33:29.174Z,33.58
2018-05-21T14:35:56.674Z,32.70
2018-05-21T14:38:24.267Z,33.99
2018-05-21T14:40:51.819Z,33.61
2018-05-21T14:43:19.461Z,33.23
2018-05-21T14:45:47.018Z,33.76
2018-05-21T14:48:14.521Z,34.41
2018-05-21T14:50:42.094Z,35.83
2018-05-21T14:53:09.691Z,34.80
2018-05-21T14:55:37.241Z,34.68
2018-05-21T14:58:04.814Z,34.87
2018-05-21T15:00:32.354Z,36.56
2018-05-21T15:03:14.929Z,34.19
2018-05-21T15:05:42.421Z,36.42
2018-05-21T15:08:09.932Z,32.86
2018-05-21T15:10:37.426Z,33.63
2018-05-21T15:13:04.918Z,33.29
2018-05-21T15:15:32.426Z,34.08
2018-05-21T15:17:59.923Z,34.09
2018-05-21T15:20:27.446Z,33.25
2018-05-21T15:22:54.940Z,34.00
2018-05-21T15:25:22.442Z,33.75
2018-05-21T15:27:49.963Z,33.86
2018-05-21T15:30:17.451Z,33.41
2018-05-21T15:32:44.957Z,34.09
2018-05-21T15:35:12.461Z,34.31
2018-05-21T15:37:39.951Z,35.80
2018-05-21T15:40:07.511Z,34.17
2018-05-21T15:42:35.010Z,33.70
2018-05-21T15:45:02.543Z,34.80
2018-05-21T15:47:30.038Z,36.65
2018-05-21T15:49:57.535Z,35.86
2018-05-21T15:52:25.060Z,35.49
2018-05-21T15:54:52.580Z,34.11
2018-05-21T15:57:20.129Z,32.76
2018-05-21T15:59:47.620Z,35.21
2018-05-21T16:02:15.128Z,33.01
2018-05-21T16:04:42.642Z,32.75
2018-05-21T16:07:10.136Z,33.83
2018-05-21T16:09:37.659Z,34.39
2018-05-21T16:12:05.146Z,34.31
2018-05-21T16:14:32.638Z,35.89
2018-05-21T16:17:00.151Z,34.90
2018-05-21T16:19:27.638Z,33.22
2018-05-21T16:21:55.163Z,32.99
2018-05-21T16:24:22.665Z,33.23
2018-05-21T16:26:50.159Z,34.20
2018-05-21T16:29:17.669Z,32.56
2018-05-21T16:31:45.155Z,34.21
2018-05-21T16:34:12.670Z,33.11
2018-05-21T16:36:40.166Z,31.26
2018-05-21T16:39:07.651Z,32.43
2018-05-21T16:41:35.264Z,33.07
2018-05-21T16:44:02.683Z,34.97
2018-05-21T16:46:30.208Z,36.11
2018-05-21T16:48:57.704Z,38.25
2018-05-21T16:51:25.191Z,37.62
2018-05-21T16:53:52.728Z,37.93
2018-05-21T16:56:20.210Z,38.76
2018-05-21T16:58:47.742Z,39.46
2018-05-21T17:01:15.236Z,39.02
2018-05-21T17:03:42.730Z,39.25
2018-05-21T17:06:10.244Z,40.27
2018-05-21T17:08:37.742Z,39.94
2018-05-21T17:11:05.258Z,39.57
2018-05-21T17:13:32.756Z,40.05
2018-05-21T17:16:00.251Z,41.08
2018-05-21T17:18:27.756Z,41.55
2018-05-21T17:20:55.246Z,41.76
2018-05-21T17:23:22.765Z,42.20
2018-05-21T17:25:50.263Z,42.58
2018-05-21T17:28:17.770Z,42.92
2018-05-21T17:30:45.303Z,42.43
2018-05-21T17:33:12.785Z,43.28
2018-05-21T17:35:40.387Z,43.63
2018-05-21T17:38:07.837Z,43.06
2018-05-21T17:40:35.329Z,42.47
2018-05-21T17:43:02.839Z,42.01
2018-05-21T17:45:30.346Z,42.67
2018-05-21T17:47:57.864Z,42.91
2018-05-21T17:50:25.352Z,42.21
2018-05-21T17:52:52.849Z,42.64
2018-05-21T17:55:20.358Z,42.32
2018-05-21T17:57:47.860Z,42.59
2018-05-21T18:00:15.388Z,43.02
2018-05-21T18:02:42.885Z,42.36
2018-05-21T18:05:10.390Z,42.48
2018-05-21T18:07:37.912Z,42.53
2018-05-21T18:10:05.448Z,42.40
2018-05-21T18:12:32.979Z,42.87
2018-05-21T18:15:00.478Z,43.00
2018-05-21T18:17:27.975Z,43.44
2018-05-21T18:19:55.494Z,43.38
2018-05-21T18:22:22.985Z,43.82
2018-05-21T18:24:50.496Z,43.35
2018-05-21T18:27:17.993Z,44.26
2018-05-21T18:29:45.481Z,43.60
2018-05-21T18:32:12.992Z,43.77
2018-05-21T18:34:40.488Z,44.44
2018-05-21T18:37:08.002Z,45.24
2018-05-21T18:39:35.506Z,46.66
2018-05-21T18:42:03.012Z,45.54
2018-05-21T18:44:30.534Z,45.89
2018-05-21T18:46:58.066Z,46.93
2018-05-21T18:49:25.669Z,47.94
2018-05-21T18:51:53.154Z,48.17
2018-05-21T18:54:20.641Z,49.59
2018-05-21T18:56:48.166Z,48.94
2018-05-21T18:59:15.667Z,49.83
2018-05-21T19:01:43.181Z,50.02
2018-05-21T19:04:10.681Z,50.52
2018-05-21T19:06:38.175Z,50.75
2018-05-21T19:09:06.618Z,50.75
2018-05-21T19:11:34.154Z,52.00
2018-05-21T19:14:01.684Z,51.56
2018-05-21T19:16:29.185Z,51.85
2018-05-21T19:18:56.677Z,51.80
2018-05-21T19:21:24.206Z,51.50
2018-05-21T19:23:51.733Z,51.37
2018-05-21T19:26:19.328Z,51.20
2018-05-21T19:28:46.831Z,51.84
2018-05-21T19:31:14.347Z,51.71
2018-05-21T19:33:41.862Z,51.25
2018-05-21T19:36:09.358Z,51.50
2018-05-21T19:38:36.933Z,52.52
2018-05-21T19:41:04.402Z,53.61
2018-05-21T19:43:31.893Z,54.15
2018-05-21T19:45:59.424Z,54.03
2018-05-21T19:48:26.922Z,53.90
2018-05-21T19:50:54.438Z,53.83
2018-05-21T19:53:21.941Z,54.72
2018-05-21T19:55:49.431Z,54.83
2018-05-21T19:58:16.957Z,54.08
2018-05-21T20:00:44.446Z,54.49
2018-05-21T20:03:11.966Z,54.29
2018-05-21T20:05:39.449Z,54.04
2018-05-21T20:08:06.930Z,54.29
2018-05-21T20:10:34.437Z,54.78
2018-05-21T20:13:01.940Z,54.60
2018-05-21T20:15:29.486Z,55.62
2018-05-21T20:17:57.030Z,56.57
2018-05-21T20:20:36.396Z,56.63
2018-05-21T20:23:03.919Z,57.38
2018-05-21T20:25:31.405Z,58.63
2018-05-21T20:27:58.923Z,58.90
2018-05-21T20:30:26.442Z,59.05
2018-05-21T20:32:53.990Z,59.05
2018-05-21T20:35:21.488Z,59.46
2018-05-21T20:37:49.002Z,59.63
2018-05-21T20:40:16.525Z,59.67
2018-05-21T20:42:44.015Z,60.33
2018-05-21T20:45:11.536Z,60.86
2018-05-21T20:47:39.035Z,59.93
2018-05-21T20:50:06.542Z,60.43
2018-05-21T20:52:34.084Z,61.06
2018-05-21T20:55:01.583Z,60.84
2018-05-21T20:57:29.115Z,61.11
2018-05-21T20:59:56.638Z,61.28
2018-05-21T21:02:24.183Z,61.71
2018-05-21T21:04:51.747Z,60.55
2018-05-21T21:07:19.286Z,61.16
2018-05-21T21:09:46.895Z,60.18
2018-05-21T21:12:14.449Z,60.44
2018-05-21T21:14:41.958Z,59.93
2018-05-21T21:17:09.537Z,58.81
2018-05-21T21:19:37.213Z,58.72
2018-05-21T21:22:04.794Z,58.64
2018-05-21T21:24:32.327Z,57.88
2018-05-21T21:26:59.931Z,57.55
2018-05-21T21:29:27.502Z,57.93
2018-05-21T21:31:55.010Z,57.85
2018-05-21T21:34:22.563Z,58.15
2018-05-21T21:36:50.066Z,57.99
2018-05-21T21:39:17.599Z,57.55
2018-05-21T21:41:45.147Z,57.89
2018-05-21T21:44:12.691Z,58.76
2018-05-21T21:46:40.211Z,59.22
2018-05-21T21:49:07.705Z,59.95
2018-05-21T21:51:35.224Z,59.48
2018-05-21T21:54:02.746Z,59.50
2018-05-21T21:56:30.251Z,60.21
2018-05-21T21:58:57.820Z,60.30
2018-05-21T22:01:25.398Z,60.52
2018-05-21T22:03:52.912Z,60.20
2018-05-21T22:06:20.531Z,61.54
2018-05-21T22:08:48.117Z,61.75
2018-05-21T22:11:15.662Z,62.09
2018-05-21T22:13:43.250Z,61.78
2018-05-21T22:16:10.777Z,62.83
2018-05-21T22:18:38.381Z,63.02
2018-05-21T22:21:06.558Z,62.83
2018-05-21T22:23:34.147Z,63.30
2018-05-21T22:26:01.675Z,63.30
2018-05-21T22:28:29.929Z,63.01
2018-05-21T22:30:57.459Z,62.85
2018-05-21T22:33:24.986Z,63.55
2018-05-21T22:35:52.574Z,64.82
2018-05-21T22:38:20.072Z,65.54
2018-05-21T22:40:47.573Z,65.59
2018-05-21T22:43:15.107Z,65.06
2018-05-21T22:45:43.185Z,65.37
2018-05-21T22:48:10.729Z,65.65
2018-05-21T22:50:38.263Z,65.91
2018-05-21T22:53:05.810Z,66.08
2018-05-21T22:55:33.325Z,66.33
2018-05-21T22:58:00.830Z,66.76
2018-05-21T23:00:28.400Z,66.90
2018-05-21T23:02:55.902Z,66.94
2018-05-21T23:05:23.416Z,67.08
2018-05-21T23:07:50.989Z,66.99
2018-05-21T23:10:18.565Z,67.16
2018-05-21T23:12:46.098Z,67.36
2018-05-21T23:15:13.612Z,67.64
2018-05-21T23:17:41.136Z,67.83
2018-05-21T23:20:08.710Z,68.11
2018-05-21T23:22:44.227Z,68.09
2018-05-21T23:25:11.777Z,68.89
2018-05-21T23:27:39.333Z,69.22
2018-05-21T23:30:06.853Z,69.08
2018-05-21T23:32:35.596Z,69.10
2018-05-21T23:35:03.117Z,69.27
2018-05-21T23:37:30.706Z,69.50
2018-05-21T23:39:58.230Z,69.69
2018-05-21T23:42:25.781Z,69.78
2018-05-21T23:44:53.301Z,70.26
2018-05-21T23:47:20.801Z,70.47
2018-05-21T23:49:48.414Z,70.72
2018-05-21T23:52:15.953Z,70.83
2018-05-21T23:54:43.467Z,71.67
2018-05-21T23:57:11.026Z,71.47
2018-05-21T23:59:38.535Z,72.19
